Aérodrome :
LOGIN :

S'inscrire | Disclaimer

   EN    FR    IT 

 










Légende :    VFR   VFR Marginal   IFR   IFR Intensif   IFR Très Intensif
Visi : 
Plafond : 
>= 8 km
>= 3000ft
5 à 8 km
1000 à 3000 ft
1500m à 5 km
500 à 1000 ft
800 à 1500m
200 à 500 ft
< 800m
< 200 ft
Symboles :   Orages  Brouillard  Fortes neiges  Fortes précipitations  Vent > 20 kt
SIGMETs :   Divers  Orages  Givrage  Turbulence  Onde Orograph.  Cendres Volcan.







- Altitude de l'aérodrome : 584 ft
- Voir les cartes d'approche


LFPV - Villacoublay Vélizy

DERNIER METAR :
  • 231330Z AUTO VRB02KT CAVOK 29/14 Q1018 NOSIG

METARs EXPIRÉS :
  • 231300Z AUTO VRB02KT CAVOK 29/14 Q1018 NOSIG
  • 231230Z AUTO 20004KT 140V270 CAVOK 28/13 Q1018 NOSIG
  • 231200Z AUTO VRB03KT CAVOK 28/14 Q1018 NOSIG
  • 231130Z AUTO VRB04KT CAVOK 27/15 Q1018 NOSIG
  • 231100Z AUTO VRB03KT CAVOK 27/14 Q1018 NOSIG

TAF TAF LFPV
Valide du 23 à 09h jusqu'au 24 à 09h UTC


230800Z 2309/2409 36005KT CAVOK
Pas de NOTAMs connus pour ce terrain.



MET'MAP, la Météo Aéronautique d'un coup d'oeil ! - Copyright ORBIFLY Décembre 2007 - Disclaimer

ORBIFLY MET'MAP TEAM :

Programmation & Développement : Alexandra Zaïnal
Conception & Développement : Baudouin d'Aumeries
Co-Programmation & Développement : Marc-Olivier Méhu
Soutien technique & logistique : Manuel Goepfert

Contact : metmap@orbifly.com




SOURCES & CREDITS :

   NOAA